createdAt,value
2022-12-20T00:00:18.111Z,3.35
2022-12-20T00:02:47.940Z,5.77
2022-12-20T00:05:17.618Z,5.10
2022-12-20T00:07:47.372Z,4.43
2022-12-20T00:10:17.191Z,4.97
2022-12-20T00:12:47.035Z,2.43
2022-12-20T00:15:17.511Z,3.34
2022-12-20T00:17:47.324Z,3.73
2022-12-20T00:20:17.219Z,3.70
2022-12-20T00:22:47.019Z,2.83
2022-12-20T00:25:16.935Z,2.62
2022-12-20T00:27:46.745Z,3.87
2022-12-20T00:30:17.186Z,2.60
2022-12-20T00:32:47.487Z,4.10
2022-12-20T00:35:17.012Z,2.98
2022-12-20T00:37:46.763Z,4.90
2022-12-20T00:40:17.545Z,2.38
2022-12-20T00:42:47.603Z,2.23
2022-12-20T00:45:17.533Z,5.43
2022-12-20T00:47:47.290Z,2.93
2022-12-20T00:50:16.856Z,2.43
2022-12-20T00:52:46.608Z,4.37
2022-12-20T00:55:16.481Z,2.12
2022-12-20T00:57:46.276Z,3.23
2022-12-20T01:00:17.956Z,5.22
2022-12-20T01:02:48.995Z,2.57
2022-12-20T01:05:19.025Z,2.53
2022-12-20T01:07:48.750Z,4.30
2022-12-20T01:10:18.650Z,3.02
2022-12-20T01:12:48.458Z,3.93
2022-12-20T01:15:18.794Z,3.52
2022-12-20T01:17:48.751Z,4.80
2022-12-20T01:20:18.760Z,5.10
2022-12-20T01:22:48.513Z,4.90
2022-12-20T01:25:18.253Z,3.72
2022-12-20T01:27:47.968Z,4.23
2022-12-20T01:30:17.484Z,4.35
2022-12-20T01:32:47.533Z,4.10
2022-12-20T01:35:17.356Z,4.87
2022-12-20T01:37:47.089Z,3.47
2022-12-20T01:40:17.519Z,3.52
2022-12-20T01:42:47.548Z,3.50
2022-12-20T01:45:20.423Z,4.00
2022-12-20T01:47:49.895Z,3.65
2022-12-20T01:50:19.488Z,4.97
2022-12-20T01:52:49.761Z,7.85
2022-12-20T01:55:23.193Z,5.00
2022-12-20T01:57:56.011Z,2.63
2022-12-20T02:00:26.184Z,2.80
2022-12-20T02:02:56.830Z,7.23
2022-12-20T02:05:26.544Z,3.83
2022-12-20T02:07:58.133Z,6.53
2022-12-20T02:10:30.624Z,6.12
2022-12-20T02:13:03.386Z,5.30
2022-12-20T02:15:42.377Z,5.15
2022-12-20T02:18:35.965Z,5.20
2022-12-20T02:21:26.138Z,4.75
2022-12-20T02:24:24.471Z,7.50
2022-12-20T02:27:22.522Z,3.03
2022-12-20T02:30:13.106Z,7.10
2022-12-20T02:32:58.061Z,5.83
2022-12-20T02:35:31.179Z,4.63
2022-12-20T02:38:03.789Z,5.47
2022-12-20T02:40:39.276Z,3.70
2022-12-20T02:43:29.089Z,6.90
2022-12-20T02:46:01.904Z,5.00
2022-12-20T02:48:35.229Z,4.73
2022-12-20T02:51:06.713Z,6.90
2022-12-20T02:53:38.178Z,5.07
2022-12-20T02:56:19.461Z,4.37
2022-12-20T02:58:58.143Z,5.17
2022-12-20T03:01:43.176Z,4.37
2022-12-20T03:04:14.412Z,4.45
2022-12-20T03:06:58.785Z,5.40
2022-12-20T03:09:31.153Z,4.25
2022-12-20T03:12:01.212Z,2.80
2022-12-20T03:14:32.152Z,3.67
2022-12-20T03:17:02.519Z,4.57
2022-12-20T03:19:32.886Z,5.60
2022-12-20T03:24:47.094Z,5.35
2022-12-20T03:27:17.038Z,7.67
2022-12-20T03:29:46.947Z,6.23
2022-12-20T03:32:17.272Z,4.70
2022-12-20T03:34:47.231Z,4.20
2022-12-20T03:37:17.800Z,7.73
2022-12-20T03:39:47.666Z,6.37
2022-12-20T03:42:17.376Z,5.27
2022-12-20T03:44:47.394Z,5.43
2022-12-20T03:47:17.166Z,7.03
2022-12-20T03:49:48.707Z,4.60
2022-12-20T03:52:18.706Z,7.78
2022-12-20T03:54:49.675Z,4.87
2022-12-20T03:57:21.091Z,8.80
2022-12-20T03:59:54.123Z,7.20
2022-12-20T04:02:25.053Z,3.90
2022-12-20T04:04:56.482Z,7.90
2022-12-20T04:07:26.186Z,4.23
2022-12-20T04:09:56.015Z,5.27
2022-12-20T04:12:25.483Z,3.27
2022-12-20T04:14:55.355Z,7.47
2022-12-20T04:17:25.148Z,9.37
2022-12-20T04:19:55.145Z,6.77
2022-12-20T04:22:25.203Z,4.35
2022-12-20T04:24:56.653Z,3.20
2022-12-20T04:27:28.193Z,3.90
2022-12-20T04:29:58.061Z,4.67
2022-12-20T04:32:27.891Z,4.57
2022-12-20T04:34:57.661Z,2.90
2022-12-20T04:37:27.143Z,3.50
2022-12-20T04:39:58.291Z,2.53
2022-12-20T04:42:32.492Z,4.43
2022-12-20T04:45:04.166Z,5.07
2022-12-20T04:47:34.335Z,4.37
2022-12-20T04:50:04.421Z,3.30
2022-12-20T04:52:51.817Z,2.77
2022-12-20T04:55:22.972Z,2.30
2022-12-20T04:57:52.734Z,5.63
2022-12-20T05:00:22.784Z,3.37
2022-12-20T05:02:54.449Z,4.47
2022-12-20T05:05:25.994Z,5.70
2022-12-20T05:07:56.589Z,4.90
2022-12-20T05:10:26.403Z,6.10
2022-12-20T05:12:56.566Z,3.57
2022-12-20T05:15:28.283Z,5.33
2022-12-20T05:17:59.652Z,3.60
2022-12-20T05:20:31.965Z,4.77
2022-12-20T05:23:19.604Z,2.67
2022-12-20T05:26:09.802Z,3.03
2022-12-20T05:28:40.043Z,5.47
2022-12-20T05:31:09.847Z,3.07
2022-12-20T05:33:40.343Z,5.90
2022-12-20T05:36:12.083Z,5.10
2022-12-20T05:38:41.956Z,6.97
2022-12-20T05:41:13.745Z,3.92
2022-12-20T05:43:44.091Z,2.70
2022-12-20T05:46:14.492Z,3.13
2022-12-20T05:48:45.911Z,4.27
2022-12-20T05:51:15.925Z,6.47
2022-12-20T05:53:47.728Z,5.35
2022-12-20T05:56:18.936Z,1.87
2022-12-20T05:58:49.949Z,3.17
2022-12-20T06:01:20.510Z,3.75
2022-12-20T06:03:52.750Z,4.40
2022-12-20T06:06:23.386Z,4.57
2022-12-20T06:08:53.208Z,3.20
2022-12-20T06:11:29.820Z,7.63
2022-12-20T06:13:58.252Z,6.43
2022-12-20T06:16:28.546Z,5.00
2022-12-20T06:19:00.598Z,4.47
2022-12-20T06:21:32.098Z,1.73
2022-12-20T06:24:02.142Z,4.77
2022-12-20T06:26:34.009Z,4.47
2022-12-20T06:29:08.990Z,2.83
2022-12-20T06:31:43.480Z,4.83
2022-12-20T06:34:13.275Z,6.47
2022-12-20T06:36:44.509Z,2.63
2022-12-20T06:39:16.283Z,3.12
2022-12-20T06:41:47.835Z,2.70
2022-12-20T06:44:17.514Z,2.77
2022-12-20T06:46:47.311Z,4.07
2022-12-20T06:49:17.336Z,3.05
2022-12-20T06:51:47.161Z,4.33
2022-12-20T06:54:17.707Z,3.30
2022-12-20T06:56:47.435Z,2.87
2022-12-20T06:59:18.344Z,3.07
2022-12-20T07:01:48.336Z,2.13
2022-12-20T07:04:17.823Z,2.70
2022-12-20T07:06:47.565Z,2.77
2022-12-20T07:09:18.135Z,4.77
2022-12-20T07:11:47.880Z,3.20
2022-12-20T07:14:17.600Z,3.30
2022-12-20T07:16:47.521Z,3.67
2022-12-20T07:19:18.096Z,4.30
2022-12-20T07:21:48.709Z,7.37
2022-12-20T07:24:18.285Z,8.97
2022-12-20T07:26:48.135Z,5.90
2022-12-20T07:29:17.868Z,7.57
2022-12-20T07:31:47.820Z,6.97
2022-12-20T07:34:17.542Z,3.77
2022-12-20T07:36:47.329Z,5.43
2022-12-20T07:39:19.237Z,5.47
2022-12-20T07:41:48.999Z,4.47
2022-12-20T07:44:19.189Z,4.97
2022-12-20T07:46:49.151Z,8.17
2022-12-20T07:49:18.951Z,5.07
2022-12-20T07:51:57.138Z,5.57
2022-12-20T07:54:30.265Z,3.87
2022-12-20T07:57:02.845Z,7.77
2022-12-20T07:59:38.854Z,3.70
2022-12-20T08:02:12.050Z,8.67
2022-12-20T08:04:42.570Z,5.80
2022-12-20T08:07:13.141Z,4.47
2022-12-20T08:09:45.281Z,4.97
2022-12-20T08:12:17.630Z,5.17
2022-12-20T08:14:47.447Z,4.00
2022-12-20T08:17:17.306Z,4.30
2022-12-20T08:19:47.501Z,4.10
2022-12-20T08:22:17.259Z,4.70
2022-12-20T08:24:47.138Z,2.45
2022-12-20T08:27:16.991Z,11.83
2022-12-20T08:29:47.142Z,4.12
2022-12-20T08:32:16.725Z,4.85
2022-12-20T08:34:48.353Z,4.15
2022-12-20T08:37:18.686Z,3.80
2022-12-20T08:39:48.484Z,3.50
2022-12-20T08:42:18.276Z,4.63
2022-12-20T08:44:47.997Z,2.63
2022-12-20T08:47:17.723Z,4.73
2022-12-20T08:49:48.266Z,5.50
2022-12-20T08:52:17.831Z,3.80
2022-12-20T08:54:47.931Z,3.45
2022-12-20T08:57:17.783Z,3.47
2022-12-20T08:59:47.305Z,4.05
2022-12-20T09:02:17.366Z,2.53
2022-12-20T09:04:47.547Z,3.43
2022-12-20T09:07:18.440Z,4.67
2022-12-20T09:09:48.299Z,3.53
2022-12-20T09:12:17.872Z,6.42
2022-12-20T09:14:47.707Z,4.03
2022-12-20T09:17:17.482Z,7.23
2022-12-20T09:19:47.306Z,3.23
2022-12-20T09:22:16.855Z,3.58
2022-12-20T09:24:46.611Z,5.17
2022-12-20T09:27:16.410Z,3.53
2022-12-20T09:29:46.228Z,7.60
2022-12-20T09:32:16.225Z,3.57
2022-12-20T09:34:47.356Z,2.53
2022-12-20T09:37:17.097Z,3.80
2022-12-20T09:39:48.374Z,5.27
2022-12-20T09:42:20.900Z,5.70
2022-12-20T09:44:50.920Z,3.70
2022-12-20T09:47:24.081Z,5.80
2022-12-20T09:49:56.907Z,8.87
2022-12-20T09:52:47.631Z,4.40
2022-12-20T09:55:35.229Z,7.62
2022-12-20T09:58:15.155Z,3.53
2022-12-20T10:00:53.594Z,6.10
2022-12-20T10:03:25.441Z,3.27
2022-12-20T10:05:57.736Z,3.50
2022-12-20T10:08:48.650Z,6.20
2022-12-20T10:11:48.048Z,6.15
2022-12-20T10:14:31.095Z,4.87
2022-12-20T10:17:03.876Z,3.53
2022-12-20T10:20:01.974Z,3.97
2022-12-20T10:22:43.519Z,6.40
2022-12-20T10:25:18.888Z,6.42
2022-12-20T10:27:50.613Z,3.77
2022-12-20T10:30:23.385Z,6.30
2022-12-20T10:32:56.254Z,3.40
2022-12-20T10:35:29.751Z,4.10
2022-12-20T10:38:10.153Z,7.50
2022-12-20T10:41:10.628Z,3.50
2022-12-20T10:43:17.248Z,5.97
2022-12-20T10:46:01.696Z,3.40
2022-12-20T10:48:34.722Z,5.35
2022-12-20T10:51:16.089Z,6.35
2022-12-20T10:54:01.879Z,6.80
2022-12-20T10:56:37.744Z,3.85
2022-12-20T10:59:22.155Z,3.67
2022-12-20T11:01:52.322Z,4.33
2022-12-20T11:04:38.535Z,7.83
2022-12-20T11:07:25.966Z,6.63
2022-12-20T11:10:16.643Z,5.10
2022-12-20T11:12:59.960Z,7.53
2022-12-20T11:15:35.225Z,7.17
2022-12-20T11:21:28.274Z,3.22
2022-12-20T11:24:01.688Z,5.67
2022-12-20T11:26:50.193Z,6.03
2022-12-20T11:29:45.408Z,5.17
2022-12-20T11:32:22.078Z,3.50
2022-12-20T11:35:12.548Z,4.03
2022-12-20T11:38:12.497Z,7.23
2022-12-20T11:41:02.648Z,4.90
2022-12-20T11:44:23.400Z,5.27
2022-12-20T11:46:49.873Z,5.57
2022-12-20T11:49:38.925Z,4.27
2022-12-20T11:55:31.120Z,9.58
2022-12-20T11:58:18.523Z,4.60
2022-12-20T12:00:42.798Z,5.77
2022-12-20T12:03:17.057Z,9.93
2022-12-20T12:05:49.735Z,5.67
2022-12-20T12:08:29.049Z,5.47
2022-12-20T12:11:04.278Z,5.53
2022-12-20T12:13:37.153Z,5.97
2022-12-20T12:16:23.140Z,7.20
2022-12-20T12:18:52.968Z,4.77
2022-12-20T12:21:25.760Z,5.23
2022-12-20T12:24:30.138Z,4.23
2022-12-20T12:27:03.074Z,6.53
2022-12-20T12:29:35.210Z,6.60
2022-12-20T12:32:10.782Z,5.23
2022-12-20T12:35:07.359Z,6.37
2022-12-20T12:37:57.321Z,5.57
2022-12-20T12:40:43.905Z,6.45
2022-12-20T12:43:23.304Z,7.57
2022-12-20T12:45:59.778Z,6.90
2022-12-20T12:48:44.497Z,5.53
2022-12-20T12:51:16.357Z,7.53
2022-12-20T12:53:51.406Z,6.50
2022-12-20T12:56:46.433Z,4.80
2022-12-20T12:59:13.039Z,4.87
2022-12-20T13:01:57.424Z,10.27
2022-12-20T13:04:30.599Z,9.73
2022-12-20T13:07:03.210Z,8.63
2022-12-20T13:09:36.389Z,6.67
2022-12-20T13:12:40.799Z,12.23
2022-12-20T13:15:25.008Z,5.43
2022-12-20T13:18:02.768Z,5.90
2022-12-20T13:20:35.105Z,11.50
2022-12-20T13:23:14.116Z,9.43
2022-12-20T13:25:49.112Z,9.60
2022-12-20T13:28:27.657Z,7.00
2022-12-20T13:31:08.678Z,7.47
2022-12-20T13:33:46.210Z,8.18
2022-12-20T13:36:33.956Z,7.20
2022-12-20T13:39:07.151Z,7.47
2022-12-20T13:41:39.802Z,6.30
2022-12-20T13:44:13.025Z,8.73
2022-12-20T13:46:57.207Z,7.67
2022-12-20T13:49:41.878Z,6.55
2022-12-20T13:52:19.701Z,5.83
2022-12-20T13:54:52.600Z,6.87
2022-12-20T13:57:41.927Z,8.88
2022-12-20T14:00:20.378Z,6.08
2022-12-20T14:02:50.442Z,9.97
2022-12-20T14:05:28.421Z,11.03
2022-12-20T14:08:03.460Z,7.33
2022-12-20T14:10:35.224Z,8.60
2022-12-20T14:13:06.623Z,9.00
2022-12-20T14:15:36.726Z,7.23
2022-12-20T14:18:09.646Z,7.70
2022-12-20T14:20:39.538Z,5.87
2022-12-20T14:23:30.068Z,8.07
2022-12-20T14:26:02.491Z,9.50
2022-12-20T14:28:47.287Z,6.78
2022-12-20T14:31:41.244Z,6.63
2022-12-20T14:34:15.035Z,7.00
2022-12-20T14:36:50.130Z,6.13
2022-12-20T14:39:30.776Z,7.00
2022-12-20T14:42:05.307Z,8.60
2022-12-20T14:44:35.690Z,7.33
2022-12-20T14:47:15.425Z,9.95
2022-12-20T14:49:56.838Z,7.73
2022-12-20T14:52:40.571Z,6.65
2022-12-20T14:55:18.642Z,7.87
2022-12-20T14:57:53.966Z,7.27
2022-12-20T15:00:27.531Z,7.03
2022-12-20T15:03:01.278Z,8.33
2022-12-20T15:05:40.429Z,5.37
2022-12-20T15:08:27.338Z,9.07
2022-12-20T15:11:03.836Z,6.70
2022-12-20T15:13:38.938Z,5.45
2022-12-20T15:16:18.630Z,5.27
2022-12-20T15:18:49.564Z,5.70
2022-12-20T15:21:28.263Z,6.73
2022-12-20T15:24:00.837Z,6.37
2022-12-20T15:26:31.439Z,6.33
2022-12-20T15:29:01.736Z,8.03
2022-12-20T15:31:34.349Z,8.15
2022-12-20T15:34:16.257Z,8.07
2022-12-20T15:36:46.749Z,8.63
2022-12-20T15:39:18.225Z,8.98
2022-12-20T15:41:50.828Z,11.88
2022-12-20T15:44:28.590Z,8.13
2022-12-20T15:46:58.509Z,8.87
2022-12-20T15:49:30.827Z,7.67
2022-12-20T15:52:01.025Z,7.45
2022-12-20T15:54:33.580Z,6.85
2022-12-20T15:57:07.920Z,7.40
2022-12-20T16:02:23.120Z,10.27
2022-12-20T16:04:55.073Z,9.83
2022-12-20T16:07:24.892Z,10.37
2022-12-20T16:09:54.692Z,12.47
2022-12-20T16:12:27.461Z,13.88
2022-12-20T16:14:57.381Z,18.37
2022-12-20T16:17:27.150Z,12.17
2022-12-20T16:19:56.692Z,11.70
2022-12-20T16:22:26.835Z,11.10
2022-12-20T16:24:56.682Z,14.00
2022-12-20T16:27:26.472Z,13.13
2022-12-20T16:29:56.229Z,12.00
2022-12-20T16:32:25.777Z,13.23
2022-12-20T16:34:55.537Z,12.63
2022-12-20T16:37:25.262Z,11.77
2022-12-20T16:39:56.067Z,17.52
2022-12-20T16:42:25.668Z,13.63
2022-12-20T16:44:55.762Z,13.13
2022-12-20T16:47:25.485Z,13.00
2022-12-20T16:49:55.254Z,16.57
2022-12-20T16:52:25.038Z,15.08
2022-12-20T16:54:55.550Z,13.90
2022-12-20T16:57:25.320Z,14.00
2022-12-20T16:59:55.086Z,14.73
2022-12-20T17:02:33.262Z,16.67
2022-12-20T17:05:03.161Z,15.73
2022-12-20T17:07:37.943Z,18.37
2022-12-20T17:10:11.507Z,14.85
2022-12-20T17:12:41.637Z,18.35
2022-12-20T17:15:17.395Z,18.10
2022-12-20T17:17:47.245Z,15.53
2022-12-20T17:20:21.533Z,18.55
2022-12-20T17:22:53.922Z,23.47
2022-12-20T17:25:29.886Z,25.08
2022-12-20T17:27:59.372Z,22.45
2022-12-20T17:30:29.201Z,23.92
2022-12-20T17:32:59.027Z,24.63
2022-12-20T17:35:32.344Z,24.57
2022-12-20T17:38:02.698Z,22.13
2022-12-20T17:40:32.333Z,32.43
2022-12-20T17:43:02.170Z,28.33
2022-12-20T17:45:36.348Z,20.27
2022-12-20T17:48:08.579Z,22.52
2022-12-20T17:50:38.479Z,22.47
2022-12-20T17:53:10.008Z,23.07
2022-12-20T17:55:39.740Z,23.57
2022-12-20T17:58:10.277Z,30.80
2022-12-20T18:00:40.341Z,23.57
2022-12-20T18:03:30.145Z,27.60
2022-12-20T18:05:43.184Z,24.57
2022-12-20T18:08:14.027Z,28.73
2022-12-20T18:10:45.661Z,23.87
2022-12-20T18:13:15.490Z,27.17
2022-12-20T18:15:45.264Z,39.37
2022-12-20T18:18:16.291Z,29.72
2022-12-20T18:20:46.104Z,29.20
2022-12-20T18:23:15.928Z,19.83
2022-12-20T18:25:45.868Z,21.80
2022-12-20T18:28:15.579Z,25.37
2022-12-20T18:30:45.638Z,22.07
2022-12-20T18:33:15.422Z,25.20
2022-12-20T18:35:45.496Z,23.07
2022-12-20T18:38:16.444Z,21.00
2022-12-20T18:40:46.559Z,20.40
2022-12-20T18:43:16.599Z,20.27
2022-12-20T18:45:46.422Z,23.70
2022-12-20T18:48:16.362Z,19.92
2022-12-20T18:50:46.398Z,27.58
2022-12-20T18:53:16.155Z,23.07
2022-12-20T18:55:45.923Z,20.20
2022-12-20T18:58:15.451Z,27.17
2022-12-20T19:00:45.387Z,24.53
2022-12-20T19:03:15.483Z,22.07
2022-12-20T19:05:45.321Z,20.53
2022-12-20T19:08:15.543Z,21.13
2022-12-20T19:10:45.468Z,22.00
2022-12-20T19:13:17.300Z,20.50
2022-12-20T19:15:47.710Z,21.07
2022-12-20T19:18:17.622Z,22.00
2022-12-20T19:20:47.363Z,21.53
2022-12-20T19:23:17.130Z,22.30
2022-12-20T19:25:46.939Z,21.03
2022-12-20T19:28:16.691Z,22.20
2022-12-20T19:30:46.557Z,20.30
2022-12-20T19:33:16.278Z,18.17
2022-12-20T19:35:55.441Z,22.32
2022-12-20T19:38:17.842Z,20.85
2022-12-20T19:40:53.429Z,19.80
2022-12-20T19:43:23.216Z,19.50
2022-12-20T19:45:53.484Z,24.27
2022-12-20T19:48:23.398Z,20.97
2022-12-20T19:50:54.363Z,22.70
2022-12-20T19:53:24.115Z,23.30
2022-12-20T19:55:54.249Z,24.57
2022-12-20T19:58:23.937Z,21.50
2022-12-20T20:00:53.933Z,23.20
2022-12-20T20:03:24.335Z,23.50
2022-12-20T20:05:55.622Z,25.40
2022-12-20T20:08:25.797Z,21.80
2022-12-20T20:10:57.200Z,22.93
2022-12-20T20:13:28.632Z,22.65
2022-12-20T20:16:01.651Z,25.45
2022-12-20T20:18:33.070Z,20.90
2022-12-20T20:21:11.770Z,27.47
2022-12-20T20:23:42.223Z,23.13
2022-12-20T20:26:17.775Z,24.57
2022-12-20T20:28:47.217Z,24.80
2022-12-20T20:31:18.296Z,26.60
2022-12-20T20:33:48.748Z,24.25
2022-12-20T20:36:21.635Z,24.12
2022-12-20T20:38:52.544Z,23.00
2022-12-20T20:41:22.591Z,25.70
2022-12-20T20:43:52.349Z,26.67
2022-12-20T20:46:22.607Z,22.43
2022-12-20T20:48:52.451Z,28.83
2022-12-20T20:51:22.501Z,26.45
2022-12-20T20:53:52.573Z,26.00
2022-12-20T20:56:23.018Z,24.05
2022-12-20T20:58:57.636Z,24.77
2022-12-20T21:01:25.333Z,25.70
2022-12-20T21:03:55.275Z,26.10
2022-12-20T21:06:42.029Z,23.52
2022-12-20T21:08:56.737Z,22.83
2022-12-20T21:11:26.571Z,24.53
2022-12-20T21:13:56.593Z,25.23
2022-12-20T21:16:26.488Z,23.87
2022-12-20T21:18:59.166Z,27.30
2022-12-20T21:21:29.798Z,24.37
2022-12-20T21:23:59.584Z,25.47
2022-12-20T21:26:29.640Z,26.45
2022-12-20T21:29:00.984Z,28.27
2022-12-20T21:31:31.468Z,26.47
2022-12-20T21:34:01.240Z,29.80
2022-12-20T21:36:30.964Z,28.27
2022-12-20T21:39:00.791Z,28.90
2022-12-20T21:41:30.553Z,29.80
2022-12-20T21:44:01.564Z,31.57
2022-12-20T21:46:32.448Z,33.20
2022-12-20T21:49:02.044Z,30.90
2022-12-20T21:51:32.113Z,34.27
2022-12-20T21:54:03.208Z,31.40
2022-12-20T21:56:35.574Z,28.97
2022-12-20T21:59:05.791Z,29.52
2022-12-20T22:01:35.723Z,33.17
2022-12-20T22:04:07.616Z,29.00
2022-12-20T22:06:37.429Z,30.07
2022-12-20T22:09:09.630Z,33.18
2022-12-20T22:11:40.508Z,30.60
2022-12-20T22:14:13.618Z,32.26
2022-12-20T22:16:43.776Z,32.50
2022-12-20T22:19:15.382Z,35.40
2022-12-20T22:21:45.193Z,33.23
2022-12-20T22:24:14.650Z,33.37
2022-12-20T22:26:44.573Z,42.60
2022-12-20T22:29:14.333Z,38.30
2022-12-20T22:31:44.220Z,37.80
2022-12-20T22:34:15.249Z,43.76
2022-12-20T22:36:45.000Z,45.23
2022-12-20T22:39:14.749Z,44.07
2022-12-20T22:41:44.697Z,43.37
2022-12-20T22:44:14.997Z,46.65
2022-12-20T22:46:44.745Z,46.00
2022-12-20T22:49:20.276Z,49.93
2022-12-20T22:52:02.693Z,51.53
2022-12-20T22:54:21.220Z,49.93
2022-12-20T22:56:50.965Z,47.33
2022-12-20T22:59:20.802Z,53.50
2022-12-20T23:01:50.529Z,54.55
2022-12-20T23:04:20.577Z,51.68
2022-12-20T23:06:50.721Z,58.73
2022-12-20T23:09:20.551Z,57.80
2022-12-20T23:12:08.097Z,68.60
2022-12-20T23:15:00.194Z,66.03
2022-12-20T23:17:26.839Z,63.10
2022-12-20T23:20:14.398Z,67.53
2022-12-20T23:22:45.036Z,62.07
2022-12-20T23:25:18.054Z,63.63
2022-12-20T23:27:50.299Z,67.10
2022-12-20T23:30:22.372Z,70.73
2022-12-20T23:32:53.629Z,69.10
2022-12-20T23:35:24.622Z,72.93
2022-12-20T23:37:56.307Z,69.23
2022-12-20T23:40:25.786Z,75.27
2022-12-20T23:42:55.532Z,74.10
2022-12-20T23:45:25.122Z,70.37
2022-12-20T23:47:54.942Z,72.97
2022-12-20T23:50:24.696Z,77.73
2022-12-20T23:52:54.161Z,74.50
2022-12-20T23:55:23.701Z,80.03
2022-12-20T23:57:53.735Z,80.97
